Flight Track Log - Related Links

Times and Time Zones

All times are in EDT time to prevent confusion due to time zone crossing. See the ASQ4252 flight status page for this flight to view local times or setup timezone preferences in your user account.

Time Position Orientation Groundspeed Altitude Reporting Facility
EDT Latitude Longitude Course Direction KTS MPH feet Rate Location/Type
Mon 01:56:17 PM 29.9547 -95.3372 35° Northeast 167 192 900  Level Houston Center
Mon 01:57:00 PM 29.9494 -95.3017 100° East 199 229 2,000 1,437 Climbing Houston Center
Mon 01:57:28 PM 29.9675 -95.2875 34° Northeast 198 228 2,600 1,467 Climbing Houston Center
Mon 01:58:30 PM 30.0339 -95.2817 North 233 268 4,200 2,032 Climbing Houston Center
Mon 01:59:00 PM 30.3438 -95.0450 35° Northeast  Level FlightAware
Mon 01:59:32 PM 30.1167 -95.2456 21° North 264 304 6,800  Level Houston Center
Mon 02:00:00 PM 30.4315 -94.9685 41° Northeast  Level FlightAware
Mon 02:00:34 PM 30.1789 -95.1953 35° Northeast 272 313 8,700  Level Houston Center
Mon 02:01:00 PM 30.5234 -94.9046 35° Northeast  Level FlightAware
Mon 02:01:36 PM 30.2458 -95.1414 35° Northeast 290 334 10,100  Level Houston Center
Mon 02:02:38 PM 30.3192 -95.0825 35° Northeast 317 365 11,200 1,016 Climbing Houston Center
Mon 02:03:40 PM 30.3978 -95.0186 35° Northeast 341 392 12,200 1,016 Climbing Houston Center
Mon 02:04:42 PM 30.4839 -94.9483 35° Northeast 355 409 13,300 1,065 Climbing Houston Center
Mon 02:05:44 PM 30.5653 -94.8817 35° Northeast 358 412 14,400 1,113 Climbing Houston Center
Mon 02:06:46 PM 30.6478 -94.8194 33° Northeast 354 407 15,600 1,016 Climbing Houston Center
Mon 02:07:48 PM 30.7408 -94.7483 33° Northeast 354 407 16,500 823 Climbing Houston Center
Mon 02:08:50 PM 30.8292 -94.6797 34° Northeast 360 414 17,300 726 Climbing Houston Center
Mon 02:09:52 PM 30.9122 -94.6142 34° Northeast 362 417 18,000 726 Climbing Houston Center
Mon 02:10:54 PM 30.9964 -94.5494 33° Northeast 365 420 18,800 780 Climbing Houston Center
Mon 02:11:55 PM 31.0806 -94.4842 34° Northeast 367 422 19,600 878 Climbing Houston Center
Mon 02:12:57 PM 31.1853 -94.4036 33° Northeast 379 436 20,600 919 Climbing Houston Center
Mon 02:13:59 PM 31.2733 -94.3344 34° Northeast 384 442 21,500 919 Climbing Houston Center
Mon 02:15:01 PM 31.3603 -94.2669 34° Northeast 380 437 22,500 968 Climbing Houston Center
Mon 02:16:03 PM 31.4469 -94.1992 34° Northeast 376 433 23,500 968 Climbing Houston Center
Mon 02:17:05 PM 31.5331 -94.1283 35° Northeast 377 434 24,500 1,065 Climbing Houston Center
Mon 02:18:07 PM 31.6231 -94.0256 44° Northeast 377 434 25,700 1,065 Climbing Houston Center
Mon 02:19:09 PM 31.7008 -93.9386 44° Northeast 385 443 26,700 968 Climbing Houston Center
Mon 02:20:11 PM 31.7772 -93.8519 44° Northeast 384 442 27,700 968 Climbing Houston Center
Mon 02:21:13 PM 31.8522 -93.7664 44° Northeast 388 447 28,700 960 Climbing Houston Center
Mon 02:22:16 PM 31.9311 -93.6781 44° Northeast 391 450 29,700 960 Climbing Houston Center
Mon 02:23:18 PM 32.0100 -93.5878 44° Northeast 393 452 30,700 1,161 Climbing Houston Center
Mon 02:24:20 PM 32.1031 -93.4800 44° Northeast 393 452 32,100 1,212 Climbing Houston Center
Mon 02:25:02 PM 32.1503 -93.4286 43° Northeast 382 440 32,800 1,069 Climbing Fort Center
Mon 02:26:01 PM 32.2286 -93.3319 46° Northeast 394 453 33,900 1,059 Climbing Fort Center
Mon 02:27:01 PM 32.3053 -93.2450 44° Northeast 394 453 34,900 545 Climbing Fort Center
Mon 02:28:02 PM 32.3833 -93.1528 45° Northeast 394 453 35,000 50 Climbing Fort Center
Mon 02:29:01 PM 32.4658 -93.0578 44° Northeast 395 455 35,000  Level Fort Center
Mon 02:30:01 PM 32.5542 -92.9575 44° Northeast 407 468 35,000  Level Fort Center
Mon 02:31:02 PM 32.6422 -92.8569 44° Northeast 428 493 35,000  Level Fort Center
Mon 02:32:01 PM 32.7325 -92.7511 45° Northeast 440 506 35,000  Level Fort Center
Mon 02:33:01 PM 32.8225 -92.6500 43° Northeast 440 506 35,000  Level Fort Center
Mon 02:34:02 PM 32.9064 -92.5492 45° Northeast 434 499 35,000  Level Fort Center
Mon 02:35:02 PM 32.9942 -92.4453 45° Northeast 439 505 35,000  Level Fort Center
Mon 02:36:01 PM 33.0819 -92.3436 44° Northeast 434 499 35,000  Level Fort Center
Mon 02:38:08 PM 33.2797 -92.1142 44° Northeast 438 504 35,000  Level Memphis Center
Mon 02:39:08 PM 33.3708 -92.0089 44° Northeast 445 512 35,000  Level Memphis Center
Mon 02:40:08 PM 33.4578 -91.9011 46° Northeast 445 512 35,000  Level Memphis Center
Mon 02:41:08 PM 33.5467 -91.7978 44° Northeast 445 512 35,000  Level Memphis Center
Mon 02:42:08 PM 33.6356 -91.6869 46° Northeast 445 512 35,000  Level Memphis Center
Mon 02:43:08 PM 33.7222 -91.5783 46° Northeast 445 512 35,000  Level Memphis Center
Mon 02:44:08 PM 33.8067 -91.4747 46° Northeast 445 512 35,000  Level Memphis Center
Mon 02:45:08 PM 33.8975 -91.3633 45° Northeast 450 518 35,000  Level Memphis Center
Mon 02:46:08 PM 33.9881 -91.2539 45° Northeast 449 517 35,000  Level Memphis Center
Mon 02:47:08 PM 34.0783 -91.1472 44° Northeast 448 516 35,000  Level Memphis Center
Mon 02:48:08 PM 34.1689 -91.0375 45° Northeast 453 521 35,000  Level Memphis Center
Mon 02:49:08 PM 34.2464 -90.9400 46° Northeast 453 521 35,000  Level Memphis Center
Mon 02:50:08 PM 34.3347 -90.8325 45° Northeast 448 516 35,000  Level Memphis Center
Mon 02:51:08 PM 34.4247 -90.7222 45° Northeast 448 516 35,000  Level Memphis Center
Mon 02:52:08 PM 34.5125 -90.6142 45° Northeast 448 516 35,000  Level Memphis Center
Mon 02:53:08 PM 34.6025 -90.5058 45° Northeast 448 516 35,000  Level Memphis Center
Mon 02:54:08 PM 34.6903 -90.3950 46° Northeast 448 516 35,000  Level Memphis Center
Mon 02:55:08 PM 34.7883 -90.2736 45° Northeast 448 516 35,000  Level Memphis Center
Mon 02:56:08 PM 34.8736 -90.1697 45° Northeast 443 510 35,000  Level Memphis Center
Mon 02:57:08 PM 34.9569 -90.0658 46° Northeast 436 502 35,000  Level Memphis Center
Mon 02:58:08 PM 35.0339 -89.9436 52° Northeast 436 502 35,000  Level Memphis Center
Mon 02:59:08 PM 35.0792 -89.8114 67° East 446 513 35,000  Level Memphis Center
Mon 03:00:08 PM 35.1242 -89.6664 69° East 456 525 35,000  Level Memphis Center
Mon 03:01:08 PM 35.1733 -89.5189 68° East 462 532 35,000  Level Memphis Center
Mon 03:02:08 PM 35.2225 -89.3683 68° East 467 537 35,000  Level Memphis Center
Mon 03:03:08 PM 35.2692 -89.2253 68° East 467 537 35,000 -400 Level Memphis Center
Mon 03:04:08 PM 35.3219 -89.0694 67° East 456 525 34,200 -900 Descending Memphis Center
Mon 03:05:08 PM 35.3683 -88.9211 69° East 456 525 33,200 -1,050 Descending Memphis Center
Mon 03:06:08 PM 35.4164 -88.7725 68° East 456 525 32,100 -1,300 Descending Memphis Center
Mon 03:07:08 PM 35.4606 -88.6339 69° East 451 519 30,600 -1,500 Descending Memphis Center
Mon 03:08:08 PM 35.5044 -88.4978 68° East 439 505 29,100 -1,500 Descending Memphis Center
Mon 03:09:08 PM 35.5503 -88.3617 67° East 431 496 27,600 -1,400 Descending Memphis Center
Mon 03:10:08 PM 35.5939 -88.2225 69° East 431 496 26,300 -1,100 Descending Memphis Center
Mon 03:11:08 PM 35.6314 -88.1092 68° East 425 489 25,400 -950 Descending Memphis Center
Mon 03:12:08 PM 35.6747 -87.9725 69° East 415 478 24,400 -1,000 Descending Memphis Center
Mon 03:13:08 PM 35.7158 -87.8386 69° East 415 478 23,400 -1,050 Descending Memphis Center
Mon 03:14:08 PM 35.7339 -87.7025 81° East 405 466 22,300 -1,750 Descending Memphis Center
Mon 03:15:08 PM 35.7308 -87.5567 91° East 413 475 19,900 -2,500 Descending Memphis Center
Mon 03:16:08 PM 35.7108 -87.4142 100° East 423 487 17,300 -2,450 Descending Memphis Center
Mon 03:17:08 PM 35.7028 -87.2636 94° East 409 471 15,000 -2,300 Descending Memphis Center
Mon 03:18:08 PM 35.7017 -87.1333 91° East 395 455 12,700 -2,300 Descending Memphis Center
Mon 03:19:08 PM 35.6983 -87.0083 92° East 373 429 10,400 -1,400 Descending Memphis Center
Mon 03:20:08 PM 35.7014 -86.8906 88° East 349 402 9,900 -500 Descending Memphis Center
Mon 03:21:08 PM 35.7006 -86.7858 91° East 317 365 9,400 -750 Descending Memphis Center
Mon 03:22:08 PM 35.7461 -86.7069 55° Northeast 290 334 8,400 -750 Descending Memphis Center
Mon 03:23:08 PM 35.8089 -86.6378 42° Northeast 283 326 7,900 -500 Descending Memphis Center
Mon 03:24:08 PM 35.8650 -86.5686 45° Northeast 283 326 7,400 -750 Descending Memphis Center
Mon 03:25:08 PM 35.9347 -86.5319 23° Northeast 272 313 6,400 -1,000 Descending Memphis Center
Mon 03:26:08 PM 36.0031 -86.5161 11° North 254 292 5,400 -700 Descending Memphis Center
Mon 03:27:08 PM 36.0675 -86.5028 North 242 278 5,000 -1,050 Descending Memphis Center
Mon 03:28:08 PM 36.1242 -86.5206 346° North 215 247 3,300 -1,700 Descending Memphis Center

Login

Don't have an account? Register now (free) for customized features, flight alerts, and more!